Terminal Aerodrome Forecast
Issued by NWS Cleveland, OH

Home | Current Version | Previous Version | Text Only | Print | Product List | Glossary On
Versions: 1 2 3 4 5 6 7 8 9 10 11 12 13 14 15 16 17 18 19 20 21 22 23 24 25 26 27 28
000
FTUS41 KCLE 161400 AAB
TAFYNG
TAF AMD
KYNG 161409Z 1614/1712 33005KT P6SM BKN003 OVC025
     FM161500 33005KT P6SM BKN006 BKN015
     FM161600 33006KT P6SM BKN015
     FM161700 33006KT P6SM BKN025
     FM161900 33008KT P6SM BKN035
     FM162100 33006KT P6SM SCT045
     FM170100 31004KT P6SM SKC
     FM170900 11002KT 2SM BR SCT003=

USA.gov is the U.S. government's official web portal to all federal, state and local government web resources and services.